Terminal Aerodrome Forecast
Issued by NWS

Home | Current Version | Previous Version | Text Only | Print | Product List | Glossary Off
Versions: 1 2 3 4 5 6 7 8 9 10 11 12 13 14

062
FTUS43 KBIS 220521
TAFDIK
TAF
KDIK 220521Z 2206/2306 29006KT P6SM SKC
     FM221300 29011KT P6SM FEW120
     FM221600 31018G26KT P6SM FEW110
     FM230100 33012KT P6SM FEW250
     FM230300 36007KT P6SM FEW250=

USA.gov is the U.S. government's official web portal to all federal, state and local government web resources and services.